createdAt,value
2022-10-23T00:00:39.082Z,22.63
2022-10-23T00:03:11.052Z,24.20
2022-10-23T00:05:43.008Z,25.63
2022-10-23T00:08:14.948Z,24.67
2022-10-23T00:10:47.017Z,19.77
2022-10-23T00:13:20.349Z,23.75
2022-10-23T00:18:29.089Z,21.50
2022-10-23T00:21:01.498Z,18.95
2022-10-23T00:23:33.471Z,24.33
2022-10-23T00:26:05.675Z,25.15
2022-10-23T00:28:39.004Z,22.45
2022-10-23T00:31:11.531Z,25.77
2022-10-23T00:33:46.193Z,26.35
2022-10-23T00:36:19.748Z,26.73
2022-10-23T00:38:51.888Z,24.98
2022-10-23T00:41:28.040Z,25.85
2022-10-23T00:44:06.999Z,27.10
2022-10-23T00:46:39.370Z,26.38
2022-10-23T00:51:47.574Z,19.75
2022-10-23T00:54:24.293Z,23.55
2022-10-23T00:57:00.243Z,21.98
2022-10-23T00:59:34.108Z,23.00
2022-10-23T01:02:07.125Z,21.38
2022-10-23T01:04:39.556Z,25.20
2022-10-23T01:07:16.906Z,18.35
2022-10-23T01:09:59.404Z,22.92
2022-10-23T01:12:38.671Z,23.83
2022-10-23T01:15:18.938Z,30.08
2022-10-23T01:17:56.945Z,28.33
2022-10-23T01:20:39.808Z,26.42
2022-10-23T01:23:47.864Z,20.85
2022-10-23T01:26:40.628Z,23.60
2022-10-23T01:29:25.838Z,23.73
2022-10-23T01:32:02.622Z,23.50
2022-10-23T01:34:44.385Z,24.58
2022-10-23T01:37:22.970Z,28.50
2022-10-23T01:40:00.371Z,23.92
2022-10-23T01:42:36.739Z,21.95
2022-10-23T01:45:16.227Z,23.77
2022-10-23T01:47:50.804Z,22.58
2022-10-23T01:50:25.458Z,28.60
2022-10-23T01:53:05.055Z,24.67
2022-10-23T01:55:39.215Z,21.55
2022-10-23T01:58:16.400Z,21.88
2022-10-23T02:00:52.810Z,22.80
2022-10-23T02:03:26.772Z,23.70
2022-10-23T02:05:58.916Z,24.80
2022-10-23T02:08:31.391Z,30.08
2022-10-23T02:11:08.409Z,22.10
2022-10-23T02:13:50.030Z,23.38
2022-10-23T02:16:32.655Z,28.38
2022-10-23T02:19:12.973Z,22.20
2022-10-23T02:24:30.212Z,23.67
2022-10-23T02:27:09.276Z,24.65
2022-10-23T02:29:46.098Z,29.48
2022-10-23T02:32:22.371Z,26.42
2022-10-23T02:34:55.135Z,27.08
2022-10-23T02:37:27.785Z,27.10
2022-10-23T02:40:00.239Z,23.92
2022-10-23T02:42:43.832Z,28.05
2022-10-23T02:45:24.220Z,25.88
2022-10-23T02:48:03.151Z,31.40
2022-10-23T02:50:42.753Z,28.10
2022-10-23T02:53:27.887Z,24.30
2022-10-23T02:56:08.122Z,24.27
2022-10-23T02:58:48.187Z,32.78
2022-10-23T03:01:27.938Z,36.25
2022-10-23T03:04:05.313Z,28.88
2022-10-23T03:06:37.574Z,30.42
2022-10-23T03:09:10.074Z,30.60
2022-10-23T03:11:44.071Z,29.65
2022-10-23T03:14:16.381Z,30.90
2022-10-23T03:16:50.003Z,34.22
2022-10-23T03:19:23.284Z,32.42
2022-10-23T03:21:55.257Z,31.45
2022-10-23T03:24:27.202Z,29.00
2022-10-23T03:26:59.158Z,23.95
2022-10-23T03:29:36.390Z,29.33
2022-10-23T03:32:08.422Z,33.53
2022-10-23T03:34:42.389Z,32.70
2022-10-23T03:37:14.511Z,31.63
2022-10-23T03:39:46.395Z,35.15
2022-10-23T03:42:18.694Z,31.98
2022-10-23T03:44:50.693Z,33.72
2022-10-23T03:47:24.125Z,31.85
2022-10-23T03:49:57.686Z,36.22
2022-10-23T03:52:29.636Z,32.90
2022-10-23T03:55:01.641Z,29.80
2022-10-23T03:57:33.749Z,33.25
2022-10-23T04:00:07.184Z,33.70
2022-10-23T04:02:48.553Z,42.90
2022-10-23T04:05:22.694Z,30.85
2022-10-23T04:07:59.771Z,33.00
2022-10-23T04:10:31.755Z,29.42
2022-10-23T04:13:03.777Z,28.92
2022-10-23T04:15:40.218Z,32.25
2022-10-23T04:18:12.166Z,34.20
2022-10-23T04:20:48.041Z,44.78
2022-10-23T04:23:20.084Z,33.50
2022-10-23T04:25:56.943Z,28.42
2022-10-23T04:28:30.067Z,32.70
2022-10-23T04:31:01.967Z,43.00
2022-10-23T04:33:34.353Z,31.48
2022-10-23T04:36:08.681Z,30.42
2022-10-23T04:38:40.700Z,31.80
2022-10-23T04:41:12.636Z,30.40
2022-10-23T04:43:44.729Z,32.35
2022-10-23T04:46:20.485Z,36.25
2022-10-23T04:48:53.975Z,34.10
2022-10-23T04:51:33.765Z,37.28
2022-10-23T04:54:16.643Z,27.75
2022-10-23T04:57:00.043Z,33.10
2022-10-23T04:59:38.737Z,31.23
2022-10-23T05:02:10.700Z,36.42
2022-10-23T05:04:42.684Z,28.35
2022-10-23T05:07:34.910Z,28.00
2022-10-23T05:10:29.924Z,31.52
2022-10-23T05:13:10.755Z,24.08
2022-10-23T05:18:19.798Z,36.67
2022-10-23T05:20:57.416Z,31.80
2022-10-23T05:23:33.319Z,35.20
2022-10-23T05:26:07.462Z,30.02
2022-10-23T05:28:40.778Z,23.83
2022-10-23T05:31:19.034Z,33.35
2022-10-23T05:33:56.016Z,24.65
2022-10-23T05:36:28.431Z,25.50
2022-10-23T05:39:04.496Z,29.75
2022-10-23T05:41:37.302Z,28.63
2022-10-23T05:44:09.262Z,31.17
2022-10-23T05:49:57.363Z,47.55
2022-10-23T05:53:04.356Z,41.30
2022-10-23T05:56:04.250Z,38.53
2022-10-23T05:58:47.929Z,36.17
2022-10-23T06:01:31.709Z,30.98
2022-10-23T06:04:07.939Z,33.25
2022-10-23T06:06:59.808Z,28.95
2022-10-23T06:09:31.983Z,34.83
2022-10-23T06:12:05.998Z,45.67
2022-10-23T06:14:38.199Z,37.72
2022-10-23T06:17:10.396Z,44.95
2022-10-23T06:19:47.184Z,30.23
2022-10-23T06:22:23.032Z,48.90
2022-10-23T06:25:00.187Z,31.15
2022-10-23T06:27:34.280Z,39.17
2022-10-23T06:30:10.182Z,34.53
2022-10-23T06:32:42.329Z,52.03
2022-10-23T06:35:17.562Z,43.55
2022-10-23T06:37:49.567Z,36.53
2022-10-23T06:40:28.008Z,42.75
2022-10-23T06:43:12.956Z,35.85
2022-10-23T06:46:03.279Z,35.30
2022-10-23T06:49:04.471Z,43.28
2022-10-23T06:51:41.177Z,51.50
2022-10-23T06:54:18.593Z,48.67
2022-10-23T06:57:10.520Z,38.25
2022-10-23T06:59:52.528Z,39.90
2022-10-23T07:02:26.237Z,36.85
2022-10-23T07:04:58.365Z,42.63
2022-10-23T07:07:30.733Z,35.47
2022-10-23T07:10:03.085Z,38.53
2022-10-23T07:12:47.773Z,43.50
2022-10-23T07:15:39.882Z,40.60
2022-10-23T07:18:16.571Z,48.08
2022-10-23T07:21:11.757Z,43.85
2022-10-23T07:23:45.932Z,39.30
2022-10-23T07:26:19.251Z,35.58
2022-10-23T07:28:55.195Z,36.55
2022-10-23T07:31:30.435Z,34.05
2022-10-23T07:34:20.718Z,32.55
2022-10-23T07:37:01.513Z,35.55
2022-10-23T07:39:33.491Z,36.85
2022-10-23T07:42:05.738Z,35.58
2022-10-23T07:44:37.783Z,30.75
2022-10-23T07:47:11.244Z,35.45
2022-10-23T07:49:48.182Z,28.15
2022-10-23T07:52:20.221Z,21.70
2022-10-23T07:55:18.718Z,29.92
2022-10-23T07:57:58.113Z,37.10
2022-10-23T08:00:41.405Z,37.20
2022-10-23T08:03:22.767Z,42.95
2022-10-23T08:05:55.791Z,38.25
2022-10-23T08:08:27.844Z,37.00
2022-10-23T08:11:06.900Z,35.15
2022-10-23T08:13:49.159Z,38.78
2022-10-23T08:16:22.437Z,24.65
2022-10-23T08:19:19.009Z,25.17
2022-10-23T08:21:54.833Z,29.58
2022-10-23T08:24:27.137Z,25.70
2022-10-23T08:26:59.484Z,24.00
2022-10-23T08:29:35.221Z,29.50
2022-10-23T08:32:07.239Z,28.85
2022-10-23T08:35:00.811Z,19.60
2022-10-23T08:37:35.659Z,23.25
2022-10-23T08:40:13.438Z,22.70
2022-10-23T08:43:12.545Z,36.38
2022-10-23T08:48:55.269Z,29.40
2022-10-23T08:51:54.696Z,20.55
2022-10-23T08:54:34.141Z,13.77
2022-10-23T08:57:13.648Z,10.65
2022-10-23T08:59:48.215Z,9.13
2022-10-23T09:02:24.612Z,5.88
2022-10-23T09:04:58.403Z,6.22
2022-10-23T09:07:43.043Z,6.57
2022-10-23T09:10:25.769Z,5.65
2022-10-23T09:13:02.906Z,5.30
2022-10-23T09:15:42.433Z,4.25
2022-10-23T09:18:16.826Z,6.63
2022-10-23T09:20:48.786Z,5.72
2022-10-23T09:23:23.494Z,4.45
2022-10-23T09:25:57.057Z,5.75
2022-10-23T09:28:32.585Z,5.70
2022-10-23T09:31:08.146Z,3.85
2022-10-23T09:33:40.701Z,5.97
2022-10-23T09:36:23.506Z,3.63
2022-10-23T09:38:59.184Z,5.22
2022-10-23T09:41:36.848Z,4.90
2022-10-23T09:44:22.143Z,4.72
2022-10-23T09:46:59.745Z,7.13
2022-10-23T09:49:34.134Z,6.97
2022-10-23T09:52:23.029Z,4.00
2022-10-23T09:54:58.338Z,5.45
2022-10-23T09:57:37.118Z,5.80
2022-10-23T10:00:18.341Z,4.65
2022-10-23T10:02:59.150Z,12.93
2022-10-23T10:05:36.083Z,45.58
2022-10-23T10:08:21.883Z,48.92
2022-10-23T10:11:00.638Z,15.93
2022-10-23T10:13:48.457Z,10.77
2022-10-23T10:16:30.706Z,8.10
2022-10-23T10:19:10.668Z,9.35
2022-10-23T10:21:47.550Z,9.82
2022-10-23T10:24:26.043Z,26.67
2022-10-23T10:27:10.570Z,12.07
2022-10-23T10:29:56.444Z,12.40
2022-10-23T10:32:40.828Z,12.93
2022-10-23T10:35:23.586Z,6.22
2022-10-23T10:38:14.864Z,9.25
2022-10-23T10:40:52.068Z,8.43
2022-10-23T10:43:38.233Z,9.60
2022-10-23T10:46:20.505Z,12.48
2022-10-23T10:49:00.715Z,11.30
2022-10-23T10:51:39.188Z,12.63
2022-10-23T10:54:37.735Z,15.30
2022-10-23T10:57:17.537Z,17.15
2022-10-23T10:59:53.362Z,71.93
2022-10-23T11:02:28.707Z,12.20
2022-10-23T11:05:13.092Z,9.23
2022-10-23T11:07:54.065Z,9.32
2022-10-23T11:10:27.586Z,7.93
2022-10-23T11:12:59.984Z,33.17
2022-10-23T11:15:42.755Z,13.35
2022-10-23T11:18:21.838Z,8.00
2022-10-23T11:21:08.540Z,4.35
2022-10-23T11:24:18.071Z,5.55
2022-10-23T11:27:05.462Z,7.32
2022-10-23T11:30:03.605Z,9.43
2022-10-23T11:32:57.695Z,6.03
2022-10-23T11:35:45.270Z,9.30
2022-10-23T11:38:19.456Z,10.80
2022-10-23T11:40:53.896Z,7.80
2022-10-23T11:43:27.347Z,29.52
2022-10-23T11:46:11.493Z,10.25
2022-10-23T11:48:45.126Z,5.53
2022-10-23T11:51:28.367Z,14.35
2022-10-23T11:54:22.362Z,17.05
2022-10-23T11:57:05.514Z,8.40
2022-10-23T11:59:54.530Z,9.52
2022-10-23T12:02:32.213Z,9.55
2022-10-23T12:05:08.013Z,8.02
2022-10-23T12:07:41.953Z,3.47
2022-10-23T12:10:22.288Z,5.85
2022-10-23T12:12:58.055Z,3.42
2022-10-23T12:15:31.666Z,5.97
2022-10-23T12:18:15.626Z,3.63
2022-10-23T12:20:52.851Z,6.05
2022-10-23T12:23:47.382Z,3.67
2022-10-23T12:26:45.802Z,4.80
2022-10-23T12:29:28.381Z,11.55
2022-10-23T12:32:08.881Z,8.52
2022-10-23T12:34:50.148Z,7.30
2022-10-23T12:37:58.325Z,7.63
2022-10-23T12:40:30.555Z,3.08
2022-10-23T12:43:02.567Z,3.90
2022-10-23T12:45:40.110Z,6.68
2022-10-23T12:48:19.107Z,22.80
2022-10-23T12:50:53.279Z,11.00
2022-10-23T12:53:27.647Z,8.43
2022-10-23T12:56:02.878Z,9.48
2022-10-23T12:58:35.574Z,5.25
2022-10-23T13:01:24.382Z,6.10
2022-10-23T13:03:59.440Z,7.90
2022-10-23T13:06:32.209Z,5.65
2022-10-23T13:09:07.559Z,4.70
2022-10-23T13:11:54.772Z,5.03
2022-10-23T13:14:32.014Z,4.22
2022-10-23T13:17:06.315Z,4.82
2022-10-23T13:19:38.519Z,15.45
2022-10-23T13:22:19.863Z,14.38
2022-10-23T13:24:53.233Z,7.07
2022-10-23T13:27:27.128Z,35.13
2022-10-23T13:29:59.156Z,16.48
2022-10-23T13:32:31.140Z,9.57
2022-10-23T13:35:20.425Z,7.22
2022-10-23T13:37:53.743Z,12.00
2022-10-23T13:40:28.122Z,6.45
2022-10-23T13:43:00.250Z,21.92
2022-10-23T13:45:35.660Z,31.75
2022-10-23T13:48:13.900Z,18.40
2022-10-23T13:50:45.897Z,12.98
2022-10-23T13:53:17.900Z,7.95
2022-10-23T13:55:54.960Z,6.35
2022-10-23T13:58:29.938Z,7.95
2022-10-23T14:01:01.993Z,5.82
2022-10-23T14:03:34.116Z,5.40
2022-10-23T14:06:06.651Z,8.10
2022-10-23T14:08:38.649Z,6.55
2022-10-23T14:13:50.659Z,7.82
2022-10-23T14:16:23.458Z,6.03
2022-10-23T14:18:55.734Z,8.43
2022-10-23T14:21:27.732Z,8.00
2022-10-23T14:23:59.642Z,6.40
2022-10-23T14:26:33.004Z,8.70
2022-10-23T14:29:08.960Z,7.65
2022-10-23T14:31:43.375Z,5.25
2022-10-23T14:34:15.308Z,6.85
2022-10-23T14:37:03.514Z,8.18
2022-10-23T14:39:39.194Z,8.15
2022-10-23T14:42:12.908Z,7.78
2022-10-23T14:44:45.193Z,7.53
2022-10-23T14:47:19.234Z,8.63
2022-10-23T14:49:53.183Z,8.18
2022-10-23T14:52:25.213Z,26.08
2022-10-23T14:54:57.324Z,12.82
2022-10-23T14:57:30.705Z,9.82
2022-10-23T15:00:02.809Z,11.02
2022-10-23T15:02:34.922Z,16.42
2022-10-23T15:05:07.548Z,14.60
2022-10-23T15:07:40.519Z,13.43
2022-10-23T15:10:12.606Z,12.98
2022-10-23T15:12:46.385Z,9.95
2022-10-23T15:15:18.665Z,12.07
2022-10-23T15:17:50.596Z,10.48
2022-10-23T15:20:22.963Z,10.88
2022-10-23T15:22:54.892Z,10.73
2022-10-23T15:25:26.926Z,9.40
2022-10-23T15:28:00.203Z,10.65
2022-10-23T15:30:33.361Z,11.60
2022-10-23T15:33:05.295Z,22.25
2022-10-23T15:35:37.234Z,18.90
2022-10-23T15:38:09.197Z,15.40
2022-10-23T15:40:41.764Z,14.27
2022-10-23T15:43:16.627Z,10.75
2022-10-23T15:45:48.537Z,10.68
2022-10-23T15:48:20.448Z,8.15
2022-10-23T15:50:52.362Z,10.00
2022-10-23T15:53:24.271Z,8.88
2022-10-23T15:55:58.835Z,11.25
2022-10-23T15:58:32.185Z,11.40
2022-10-23T16:01:08.118Z,32.83
2022-10-23T16:03:40.168Z,46.30
2022-10-23T16:06:14.243Z,76.90
2022-10-23T16:08:46.434Z,34.08
2022-10-23T16:11:21.422Z,31.08
2022-10-23T16:13:56.230Z,14.75
2022-10-23T16:16:29.023Z,7.32
2022-10-23T16:19:02.076Z,10.02
2022-10-23T16:21:36.009Z,6.25
2022-10-23T16:24:08.858Z,7.80
2022-10-23T16:26:40.870Z,7.80
2022-10-23T16:29:14.254Z,9.10
2022-10-23T16:31:46.236Z,7.82
2022-10-23T16:34:18.465Z,5.82
2022-10-23T16:36:50.487Z,14.98
2022-10-23T16:39:32.909Z,24.48
2022-10-23T16:45:12.766Z,12.95
2022-10-23T16:47:44.692Z,7.45
2022-10-23T16:50:16.789Z,6.47
2022-10-23T16:52:50.978Z,5.32
2022-10-23T16:55:25.402Z,10.45
2022-10-23T16:57:57.838Z,8.82
2022-10-23T17:00:35.241Z,7.10
2022-10-23T17:03:07.330Z,14.85
2022-10-23T17:05:39.278Z,27.48
2022-10-23T17:08:11.186Z,13.20
2022-10-23T17:10:43.163Z,12.18
2022-10-23T17:13:15.088Z,18.95
2022-10-23T17:15:48.421Z,12.25
2022-10-23T17:18:20.377Z,11.00
2022-10-23T17:20:56.719Z,20.52
2022-10-23T17:23:29.455Z,33.03
2022-10-23T17:26:01.920Z,19.88
2022-10-23T17:28:37.965Z,17.00
2022-10-23T17:31:16.483Z,15.02
2022-10-23T17:33:51.622Z,11.50
2022-10-23T17:36:25.106Z,10.13
2022-10-23T17:38:57.347Z,8.73
2022-10-23T17:41:29.315Z,11.60
2022-10-23T17:44:01.437Z,11.40
2022-10-23T17:46:34.817Z,8.07
2022-10-23T17:49:08.250Z,10.45
2022-10-23T17:51:40.364Z,6.65
2022-10-23T17:54:12.989Z,7.47
2022-10-23T17:56:45.017Z,6.35
2022-10-23T17:59:21.268Z,6.25
2022-10-23T18:01:55.990Z,6.18
2022-10-23T18:04:28.035Z,6.88
2022-10-23T18:06:59.947Z,6.28
2022-10-23T18:09:31.810Z,13.57
2022-10-23T18:12:03.938Z,7.07
2022-10-23T18:14:37.529Z,7.03
2022-10-23T18:17:11.146Z,6.93
2022-10-23T18:19:43.064Z,5.60
2022-10-23T18:22:15.123Z,5.75
2022-10-23T18:24:47.031Z,7.35
2022-10-23T18:27:18.970Z,8.20
2022-10-23T18:29:51.001Z,8.90
2022-10-23T18:32:24.521Z,7.53
2022-10-23T18:34:56.502Z,7.30
2022-10-23T18:37:31.729Z,8.25
2022-10-23T18:40:06.225Z,9.25
2022-10-23T18:42:38.714Z,10.73
2022-10-23T18:45:12.411Z,8.88
2022-10-23T18:47:46.213Z,9.40
2022-10-23T18:50:18.585Z,7.80
2022-10-23T18:52:50.543Z,8.88
2022-10-23T18:55:22.502Z,9.07
2022-10-23T18:57:54.532Z,7.40
2022-10-23T19:00:26.543Z,7.35
2022-10-23T19:02:59.923Z,8.15
2022-10-23T19:05:31.852Z,6.97
2022-10-23T19:08:03.794Z,10.18
2022-10-23T19:10:36.198Z,8.55
2022-10-23T19:13:08.182Z,7.80
2022-10-23T19:15:40.198Z,10.30
2022-10-23T19:18:13.711Z,8.02
2022-10-23T19:20:45.913Z,9.25
2022-10-23T19:23:17.958Z,9.43
2022-10-23T19:25:49.941Z,8.77
2022-10-23T19:28:22.127Z,8.90
2022-10-23T19:30:54.137Z,8.95
2022-10-23T19:33:27.459Z,11.85
2022-10-23T19:36:02.311Z,14.07
2022-10-23T19:38:37.181Z,7.55
2022-10-23T19:41:09.226Z,12.00
2022-10-23T19:43:42.270Z,9.82
2022-10-23T19:46:14.244Z,7.47
2022-10-23T19:48:47.588Z,7.22
2022-10-23T19:51:19.504Z,8.20
2022-10-23T19:53:53.937Z,6.63
2022-10-23T19:56:26.192Z,5.95
2022-10-23T19:58:58.113Z,6.95
2022-10-23T20:01:30.155Z,6.80
2022-10-23T20:04:03.741Z,9.15
2022-10-23T20:06:36.568Z,7.90
2022-10-23T20:09:09.960Z,7.10
2022-10-23T20:11:41.950Z,7.60
2022-10-23T20:14:14.058Z,7.03
2022-10-23T20:16:48.057Z,9.27
2022-10-23T20:19:23.907Z,8.85
2022-10-23T20:21:55.909Z,10.40
2022-10-23T20:24:27.859Z,5.30
2022-10-23T20:26:59.801Z,4.95
2022-10-23T20:29:32.449Z,8.30
2022-10-23T20:32:04.651Z,7.63
2022-10-23T20:34:38.162Z,6.43
2022-10-23T20:37:10.115Z,8.23
2022-10-23T20:39:42.986Z,6.75
2022-10-23T20:42:14.924Z,5.28
2022-10-23T20:44:46.966Z,6.50
2022-10-23T20:47:18.874Z,4.30
2022-10-23T20:49:52.190Z,3.67
2022-10-23T20:52:24.507Z,4.95
2022-10-23T20:54:56.476Z,5.65
2022-10-23T20:57:28.361Z,3.92
2022-10-23T21:00:03.119Z,5.03
2022-10-23T21:02:35.121Z,4.53
2022-10-23T21:05:09.275Z,4.43
2022-10-23T21:07:41.180Z,4.40
2022-10-23T21:10:13.094Z,5.32
2022-10-23T21:12:45.312Z,9.13
2022-10-23T21:15:17.944Z,5.32
2022-10-23T21:17:52.051Z,6.88
2022-10-23T21:20:25.347Z,11.55
2022-10-23T21:22:57.552Z,7.95
2022-10-23T21:25:29.449Z,6.65
2022-10-23T21:28:01.376Z,5.05
2022-10-23T21:30:34.054Z,5.10
2022-10-23T21:33:06.037Z,6.50
2022-10-23T21:35:43.305Z,5.68
2022-10-23T21:38:24.424Z,5.35
2022-10-23T21:41:05.715Z,4.07
2022-10-23T21:43:37.750Z,3.15
2022-10-23T21:46:12.626Z,4.00
2022-10-23T21:48:45.084Z,3.58
2022-10-23T21:51:23.081Z,4.25
2022-10-23T21:53:55.915Z,3.35
2022-10-23T21:56:30.544Z,3.97
2022-10-23T21:59:04.309Z,5.40
2022-10-23T22:01:36.356Z,5.53
2022-10-23T22:04:09.858Z,3.47
2022-10-23T22:06:43.823Z,4.47
2022-10-23T22:09:19.551Z,6.00
2022-10-23T22:11:52.985Z,6.38
2022-10-23T22:14:24.951Z,6.35
2022-10-23T22:16:57.117Z,4.43
2022-10-23T22:19:29.177Z,4.47
2022-10-23T22:22:02.479Z,5.07
2022-10-23T22:24:36.056Z,6.32
2022-10-23T22:27:08.066Z,11.75
2022-10-23T22:29:40.011Z,20.88
2022-10-23T22:32:12.102Z,11.85
2022-10-23T22:34:59.472Z,8.68
2022-10-23T22:37:32.797Z,6.63
2022-10-23T22:40:05.744Z,10.82
2022-10-23T22:42:38.855Z,7.38
2022-10-23T22:45:10.849Z,12.45
2022-10-23T22:47:42.766Z,10.95
2022-10-23T22:50:14.758Z,7.70
2022-10-23T22:52:48.108Z,6.22
2022-10-23T22:55:20.153Z,4.97
2022-10-23T22:57:52.112Z,7.40
2022-10-23T23:00:24.053Z,3.83
2022-10-23T23:02:58.652Z,4.93
2022-10-23T23:05:30.694Z,6.45
2022-10-23T23:08:04.218Z,6.68
2022-10-23T23:10:36.277Z,6.82
2022-10-23T23:13:08.268Z,8.30
2022-10-23T23:15:41.238Z,9.63
2022-10-23T23:18:13.172Z,7.95
2022-10-23T23:20:45.292Z,11.30
2022-10-23T23:23:19.209Z,11.45
2022-10-23T23:25:51.140Z,7.13
2022-10-23T23:28:23.484Z,6.72
2022-10-23T23:31:03.573Z,9.02
2022-10-23T23:33:35.853Z,9.52
2022-10-23T23:36:09.350Z,6.75
2022-10-23T23:38:42.744Z,9.40
2022-10-23T23:41:16.513Z,7.30
2022-10-23T23:43:49.356Z,5.82
2022-10-23T23:46:21.285Z,6.18
2022-10-23T23:48:53.167Z,9.63
2022-10-23T23:51:25.922Z,6.80
2022-10-23T23:53:59.348Z,6.95
2022-10-23T23:56:32.070Z,10.10
2022-10-23T23:59:04.051Z,15.38
